Terminal Aerodrome Forecast
Issued by NWS

Home | Current Version | Previous Version | Text Only | Print | Product List | Glossary Off
Versions: 1 2 3 4 5 6 7 8 9 10 11 12 13 14 15 16 17 18 19 20 21 22 23 24 25 26 27 28 29 30 31 32 33 34 35

000
FTUS43 KGRB 131100
TAFRHI
TAF
KRHI 131120Z 1312/1412 25003KT 1/2SM FZFG VV002
      TEMPO 1312/1314 1SM BR SCT002 BKN060
     FM131400 26004KT 5SM BR FEW008
     FM131600 26005KT P6SM SKC
     FM131900 23005KT P6SM SCT040
     FM140000 20003KT P6SM SCT250
     FM140800 20005KT P6SM FEW030 BKN250=

USA.gov is the U.S. government's official web portal to all federal, state and local government web resources and services.